sensor_id;sensor_type;location;lat;lon;timestamp;P1;durP1;ratioP1;P2;durP2;ratioP2
25567;SDS011;13455;51.480;7.594;2023-10-19T00:00:47;5.82;;;4.60;;
25567;SDS011;13455;51.480;7.594;2023-10-19T00:03:15;6.32;;;4.40;;
25567;SDS011;13455;51.480;7.594;2023-10-19T00:05:42;6.53;;;4.10;;
25567;SDS011;13455;51.480;7.594;2023-10-19T00:08:10;5.13;;;3.70;;
25567;SDS011;13455;51.480;7.594;2023-10-19T00:10:39;6.30;;;3.50;;
25567;SDS011;13455;51.480;7.594;2023-10-19T00:13:07;5.95;;;3.70;;
25567;SDS011;13455;51.480;7.594;2023-10-19T00:15:43;5.82;;;3.80;;
25567;SDS011;13455;51.480;7.594;2023-10-19T00:18:14;4.43;;;3.33;;
25567;SDS011;13455;51.480;7.594;2023-10-19T00:20:43;5.85;;;3.30;;
25567;SDS011;13455;51.480;7.594;2023-10-19T00:23:29;4.70;;;3.20;;
25567;SDS011;13455;51.480;7.594;2023-10-19T00:25:58;5.22;;;3.00;;
25567;SDS011;13455;51.480;7.594;2023-10-19T00:28:24;5.60;;;3.00;;
25567;SDS011;13455;51.480;7.594;2023-10-19T00:30:52;4.25;;;3.00;;
25567;SDS011;13455;51.480;7.594;2023-10-19T00:33:19;4.35;;;3.03;;
25567;SDS011;13455;51.480;7.594;2023-10-19T00:35:46;4.03;;;2.72;;
25567;SDS011;13455;51.480;7.594;2023-10-19T00:38:16;4.50;;;3.00;;
25567;SDS011;13455;51.480;7.594;2023-10-19T00:41:09;5.25;;;2.92;;
25567;SDS011;13455;51.480;7.594;2023-10-19T00:43:35;5.47;;;3.30;;
25567;SDS011;13455;51.480;7.594;2023-10-19T00:46:06;4.47;;;3.10;;
25567;SDS011;13455;51.480;7.594;2023-10-19T00:48:40;5.80;;;3.25;;
25567;SDS011;13455;51.480;7.594;2023-10-19T00:51:14;4.32;;;3.20;;
25567;SDS011;13455;51.480;7.594;2023-10-19T00:53:59;5.45;;;3.85;;
25567;SDS011;13455;51.480;7.594;2023-10-19T00:56:39;4.28;;;3.40;;
25567;SDS011;13455;51.480;7.594;2023-10-19T00:59:12;4.68;;;3.40;;
25567;SDS011;13455;51.480;7.594;2023-10-19T01:01:42;5.10;;;3.78;;
25567;SDS011;13455;51.480;7.594;2023-10-19T01:04:12;4.65;;;3.60;;
25567;SDS011;13455;51.480;7.594;2023-10-19T01:06:57;5.65;;;3.63;;
25567;SDS011;13455;51.480;7.594;2023-10-19T01:09:26;4.88;;;3.58;;
25567;SDS011;13455;51.480;7.594;2023-10-19T01:11:59;5.20;;;3.90;;
25567;SDS011;13455;51.480;7.594;2023-10-19T01:14:28;4.97;;;3.80;;
25567;SDS011;13455;51.480;7.594;2023-10-19T01:16:54;5.88;;;3.55;;
25567;SDS011;13455;51.480;7.594;2023-10-19T01:19:24;4.75;;;3.60;;
25567;SDS011;13455;51.480;7.594;2023-10-19T01:21:52;4.13;;;3.13;;
25567;SDS011;13455;51.480;7.594;2023-10-19T01:24:23;4.35;;;3.30;;
25567;SDS011;13455;51.480;7.594;2023-10-19T01:27:07;6.28;;;3.40;;
25567;SDS011;13455;51.480;7.594;2023-10-19T01:29:35;4.03;;;3.10;;
25567;SDS011;13455;51.480;7.594;2023-10-19T01:32:06;3.95;;;3.22;;
25567;SDS011;13455;51.480;7.594;2023-10-19T01:34:37;4.47;;;3.57;;
25567;SDS011;13455;51.480;7.594;2023-10-19T01:37:03;4.45;;;3.50;;
25567;SDS011;13455;51.480;7.594;2023-10-19T01:39:30;4.30;;;3.40;;
25567;SDS011;13455;51.480;7.594;2023-10-19T01:41:56;5.32;;;3.45;;
25567;SDS011;13455;51.480;7.594;2023-10-19T01:44:23;5.72;;;3.95;;
25567;SDS011;13455;51.480;7.594;2023-10-19T01:46:50;5.85;;;4.00;;
25567;SDS011;13455;51.480;7.594;2023-10-19T01:49:16;5.80;;;4.35;;
25567;SDS011;13455;51.480;7.594;2023-10-19T01:51:51;5.70;;;4.50;;
25567;SDS011;13455;51.480;7.594;2023-10-19T01:54:19;6.40;;;4.90;;
25567;SDS011;13455;51.480;7.594;2023-10-19T01:56:48;6.13;;;4.80;;
25567;SDS011;13455;51.480;7.594;2023-10-19T01:59:15;6.37;;;5.00;;
25567;SDS011;13455;51.480;7.594;2023-10-19T02:01:41;6.53;;;5.40;;
25567;SDS011;13455;51.480;7.594;2023-10-19T02:04:10;7.57;;;5.18;;
25567;SDS011;13455;51.480;7.594;2023-10-19T02:06:38;7.65;;;5.40;;
25567;SDS011;13455;51.480;7.594;2023-10-19T02:09:11;7.30;;;5.30;;
25567;SDS011;13455;51.480;7.594;2023-10-19T02:11:49;6.75;;;5.00;;
25567;SDS011;13455;51.480;7.594;2023-10-19T02:14:18;8.70;;;5.53;;
25567;SDS011;13455;51.480;7.594;2023-10-19T02:16:45;7.20;;;5.10;;
25567;SDS011;13455;51.480;7.594;2023-10-19T02:19:12;6.77;;;5.10;;
25567;SDS011;13455;51.480;7.594;2023-10-19T02:21:38;6.90;;;5.03;;
25567;SDS011;13455;51.480;7.594;2023-10-19T02:24:08;7.25;;;5.20;;
25567;SDS011;13455;51.480;7.594;2023-10-19T02:26:34;6.23;;;5.33;;
25567;SDS011;13455;51.480;7.594;2023-10-19T02:29:02;7.22;;;5.63;;
25567;SDS011;13455;51.480;7.594;2023-10-19T02:31:37;8.57;;;5.60;;
25567;SDS011;13455;51.480;7.594;2023-10-19T02:34:04;8.15;;;5.47;;
25567;SDS011;13455;51.480;7.594;2023-10-19T02:36:32;8.15;;;5.63;;
25567;SDS011;13455;51.480;7.594;2023-10-19T02:39:00;7.40;;;5.47;;
25567;SDS011;13455;51.480;7.594;2023-10-19T02:41:33;7.18;;;5.50;;
25567;SDS011;13455;51.480;7.594;2023-10-19T02:44:00;7.75;;;5.53;;
25567;SDS011;13455;51.480;7.594;2023-10-19T02:46:30;7.80;;;5.53;;
25567;SDS011;13455;51.480;7.594;2023-10-19T02:48:59;8.45;;;5.40;;
25567;SDS011;13455;51.480;7.594;2023-10-19T02:51:25;7.65;;;5.25;;
25567;SDS011;13455;51.480;7.594;2023-10-19T02:53:51;7.67;;;5.23;;
25567;SDS011;13455;51.480;7.594;2023-10-19T02:56:18;8.17;;;5.10;;
25567;SDS011;13455;51.480;7.594;2023-10-19T02:58:45;7.72;;;5.95;;
25567;SDS011;13455;51.480;7.594;2023-10-19T03:01:18;6.78;;;5.20;;
25567;SDS011;13455;51.480;7.594;2023-10-19T03:03:48;7.07;;;5.20;;
25567;SDS011;13455;51.480;7.594;2023-10-19T03:06:17;6.63;;;4.90;;
25567;SDS011;13455;51.480;7.594;2023-10-19T03:08:45;7.40;;;4.90;;
25567;SDS011;13455;51.480;7.594;2023-10-19T03:11:11;6.07;;;4.40;;
25567;SDS011;13455;51.480;7.594;2023-10-19T03:13:38;8.32;;;4.95;;
25567;SDS011;13455;51.480;7.594;2023-10-19T03:16:06;7.15;;;4.85;;
25567;SDS011;13455;51.480;7.594;2023-10-19T03:18:32;7.22;;;5.03;;
25567;SDS011;13455;51.480;7.594;2023-10-19T03:21:00;6.88;;;4.60;;
25567;SDS011;13455;51.480;7.594;2023-10-19T03:23:26;6.80;;;5.00;;
25567;SDS011;13455;51.480;7.594;2023-10-19T03:25:54;6.00;;;4.60;;
25567;SDS011;13455;51.480;7.594;2023-10-19T03:28:38;6.95;;;4.95;;
25567;SDS011;13455;51.480;7.594;2023-10-19T03:31:05;6.57;;;4.68;;
25567;SDS011;13455;51.480;7.594;2023-10-19T03:33:32;7.10;;;4.78;;
25567;SDS011;13455;51.480;7.594;2023-10-19T03:36:01;6.60;;;4.77;;
25567;SDS011;13455;51.480;7.594;2023-10-19T03:38:29;5.63;;;4.40;;
25567;SDS011;13455;51.480;7.594;2023-10-19T03:41:01;7.23;;;4.47;;
25567;SDS011;13455;51.480;7.594;2023-10-19T03:43:32;7.35;;;4.70;;
25567;SDS011;13455;51.480;7.594;2023-10-19T03:45:58;7.53;;;4.90;;
25567;SDS011;13455;51.480;7.594;2023-10-19T03:48:29;7.40;;;4.40;;
25567;SDS011;13455;51.480;7.594;2023-10-19T03:51:01;6.85;;;4.45;;
25567;SDS011;13455;51.480;7.594;2023-10-19T03:53:27;5.90;;;4.22;;
25567;SDS011;13455;51.480;7.594;2023-10-19T03:55:55;6.30;;;4.45;;
25567;SDS011;13455;51.480;7.594;2023-10-19T03:58:21;6.53;;;4.30;;
25567;SDS011;13455;51.480;7.594;2023-10-19T04:00:48;7.40;;;4.28;;
25567;SDS011;13455;51.480;7.594;2023-10-19T04:03:14;7.90;;;4.07;;
25567;SDS011;13455;51.480;7.594;2023-10-19T04:05:42;6.18;;;4.00;;
25567;SDS011;13455;51.480;7.594;2023-10-19T04:08:11;5.60;;;4.15;;
25567;SDS011;13455;51.480;7.594;2023-10-19T04:10:45;6.10;;;4.10;;
25567;SDS011;13455;51.480;7.594;2023-10-19T04:13:31;7.13;;;4.15;;
25567;SDS011;13455;51.480;7.594;2023-10-19T04:15:57;5.47;;;3.83;;
25567;SDS011;13455;51.480;7.594;2023-10-19T04:18:23;7.27;;;4.20;;
25567;SDS011;13455;51.480;7.594;2023-10-19T04:20:50;6.90;;;3.80;;
25567;SDS011;13455;51.480;7.594;2023-10-19T04:23:19;5.87;;;3.63;;
25567;SDS011;13455;51.480;7.594;2023-10-19T04:25:52;5.97;;;3.87;;
25567;SDS011;13455;51.480;7.594;2023-10-19T04:28:28;5.43;;;3.73;;
25567;SDS011;13455;51.480;7.594;2023-10-19T04:31:03;9.10;;;4.22;;
25567;SDS011;13455;51.480;7.594;2023-10-19T04:33:31;5.73;;;3.77;;
25567;SDS011;13455;51.480;7.594;2023-10-19T04:35:57;6.53;;;3.65;;
25567;SDS011;13455;51.480;7.594;2023-10-19T04:38:25;7.05;;;3.50;;
25567;SDS011;13455;51.480;7.594;2023-10-19T04:41:02;6.97;;;3.60;;
25567;SDS011;13455;51.480;7.594;2023-10-19T04:43:32;5.77;;;3.30;;
25567;SDS011;13455;51.480;7.594;2023-10-19T04:46:10;6.68;;;3.35;;
25567;SDS011;13455;51.480;7.594;2023-10-19T04:48:36;6.00;;;3.10;;
25567;SDS011;13455;51.480;7.594;2023-10-19T04:51:05;5.47;;;3.47;;
25567;SDS011;13455;51.480;7.594;2023-10-19T04:53:36;5.47;;;3.65;;
25567;SDS011;13455;51.480;7.594;2023-10-19T04:56:03;5.68;;;3.60;;
25567;SDS011;13455;51.480;7.594;2023-10-19T04:58:30;5.70;;;3.20;;
25567;SDS011;13455;51.480;7.594;2023-10-19T05:00:56;5.80;;;3.33;;
25567;SDS011;13455;51.480;7.594;2023-10-19T05:03:24;5.95;;;3.50;;
25567;SDS011;13455;51.480;7.594;2023-10-19T05:05:50;5.40;;;3.30;;
25567;SDS011;13455;51.480;7.594;2023-10-19T05:08:16;4.93;;;3.65;;
25567;SDS011;13455;51.480;7.594;2023-10-19T05:10:42;7.53;;;3.50;;
25567;SDS011;13455;51.480;7.594;2023-10-19T05:13:08;5.80;;;3.60;;
25567;SDS011;13455;51.480;7.594;2023-10-19T05:15:33;6.53;;;3.50;;
25567;SDS011;13455;51.480;7.594;2023-10-19T05:17:59;8.17;;;3.43;;
25567;SDS011;13455;51.480;7.594;2023-10-19T05:20:25;6.15;;;3.60;;
25567;SDS011;13455;51.480;7.594;2023-10-19T05:22:51;6.40;;;3.60;;
25567;SDS011;13455;51.480;7.594;2023-10-19T05:25:17;6.47;;;3.60;;
25567;SDS011;13455;51.480;7.594;2023-10-19T05:27:42;7.97;;;3.15;;
25567;SDS011;13455;51.480;7.594;2023-10-19T05:30:10;5.90;;;3.17;;
25567;SDS011;13455;51.480;7.594;2023-10-19T05:32:36;5.90;;;3.10;;
25567;SDS011;13455;51.480;7.594;2023-10-19T05:35:02;6.70;;;3.30;;
25567;SDS011;13455;51.480;7.594;2023-10-19T05:37:30;5.97;;;3.40;;
25567;SDS011;13455;51.480;7.594;2023-10-19T05:39:56;6.53;;;3.42;;
25567;SDS011;13455;51.480;7.594;2023-10-19T05:42:22;7.32;;;3.58;;
25567;SDS011;13455;51.480;7.594;2023-10-19T05:44:48;5.75;;;3.90;;
25567;SDS011;13455;51.480;7.594;2023-10-19T05:47:13;5.95;;;3.90;;
25567;SDS011;13455;51.480;7.594;2023-10-19T05:49:39;6.47;;;4.20;;
25567;SDS011;13455;51.480;7.594;2023-10-19T05:52:04;7.93;;;4.20;;
25567;SDS011;13455;51.480;7.594;2023-10-19T05:54:30;8.15;;;4.07;;
25567;SDS011;13455;51.480;7.594;2023-10-19T05:56:56;6.63;;;3.75;;
25567;SDS011;13455;51.480;7.594;2023-10-19T05:59:22;6.72;;;3.70;;
25567;SDS011;13455;51.480;7.594;2023-10-19T06:01:51;7.43;;;4.05;;
25567;SDS011;13455;51.480;7.594;2023-10-19T06:04:18;8.40;;;4.10;;
25567;SDS011;13455;51.480;7.594;2023-10-19T06:06:43;6.88;;;3.90;;
25567;SDS011;13455;51.480;7.594;2023-10-19T06:09:09;6.97;;;3.88;;
25567;SDS011;13455;51.480;7.594;2023-10-19T06:11:35;6.90;;;4.00;;
25567;SDS011;13455;51.480;7.594;2023-10-19T06:14:03;7.93;;;4.20;;
25567;SDS011;13455;51.480;7.594;2023-10-19T06:16:32;8.10;;;4.43;;
25567;SDS011;13455;51.480;7.594;2023-10-19T06:18:58;8.23;;;4.55;;
25567;SDS011;13455;51.480;7.594;2023-10-19T06:21:24;9.98;;;5.60;;
25567;SDS011;13455;51.480;7.594;2023-10-19T06:23:50;8.05;;;4.90;;
25567;SDS011;13455;51.480;7.594;2023-10-19T06:26:17;8.25;;;4.68;;
25567;SDS011;13455;51.480;7.594;2023-10-19T06:28:42;8.48;;;4.63;;
25567;SDS011;13455;51.480;7.594;2023-10-19T06:31:08;9.73;;;4.90;;
25567;SDS011;13455;51.480;7.594;2023-10-19T06:33:34;9.88;;;4.80;;
25567;SDS011;13455;51.480;7.594;2023-10-19T06:36:00;7.63;;;4.82;;
25567;SDS011;13455;51.480;7.594;2023-10-19T06:38:28;9.13;;;5.00;;
25567;SDS011;13455;51.480;7.594;2023-10-19T06:40:54;7.55;;;4.90;;
25567;SDS011;13455;51.480;7.594;2023-10-19T06:43:21;8.03;;;5.10;;
25567;SDS011;13455;51.480;7.594;2023-10-19T06:45:49;10.25;;;5.20;;
25567;SDS011;13455;51.480;7.594;2023-10-19T06:48:15;8.88;;;5.20;;
25567;SDS011;13455;51.480;7.594;2023-10-19T06:50:40;8.55;;;5.20;;
25567;SDS011;13455;51.480;7.594;2023-10-19T06:53:06;8.63;;;5.05;;
25567;SDS011;13455;51.480;7.594;2023-10-19T06:55:32;8.37;;;4.73;;
25567;SDS011;13455;51.480;7.594;2023-10-19T06:57:58;9.85;;;4.78;;
25567;SDS011;13455;51.480;7.594;2023-10-19T07:00:24;8.45;;;4.57;;
25567;SDS011;13455;51.480;7.594;2023-10-19T07:02:57;8.75;;;4.80;;
25567;SDS011;13455;51.480;7.594;2023-10-19T07:05:25;7.15;;;4.68;;
25567;SDS011;13455;51.480;7.594;2023-10-19T07:07:54;8.95;;;4.90;;
25567;SDS011;13455;51.480;7.594;2023-10-19T07:10:22;10.80;;;4.90;;
25567;SDS011;13455;51.480;7.594;2023-10-19T07:12:51;9.37;;;5.10;;
25567;SDS011;13455;51.480;7.594;2023-10-19T07:15:18;6.77;;;4.90;;
25567;SDS011;13455;51.480;7.594;2023-10-19T07:17:48;8.30;;;4.60;;
25567;SDS011;13455;51.480;7.594;2023-10-19T07:20:15;8.60;;;4.90;;
25567;SDS011;13455;51.480;7.594;2023-10-19T07:22:51;9.25;;;5.20;;
25567;SDS011;13455;51.480;7.594;2023-10-19T07:25:21;9.10;;;4.97;;
25567;SDS011;13455;51.480;7.594;2023-10-19T07:27:48;9.07;;;4.75;;
25567;SDS011;13455;51.480;7.594;2023-10-19T07:30:14;8.55;;;5.15;;
25567;SDS011;13455;51.480;7.594;2023-10-19T07:32:45;10.48;;;4.95;;
25567;SDS011;13455;51.480;7.594;2023-10-19T07:35:11;8.35;;;4.88;;
25567;SDS011;13455;51.480;7.594;2023-10-19T07:37:37;9.85;;;4.80;;
25567;SDS011;13455;51.480;7.594;2023-10-19T07:40:03;8.38;;;4.55;;
25567;SDS011;13455;51.480;7.594;2023-10-19T07:42:30;6.38;;;3.75;;
25567;SDS011;13455;51.480;7.594;2023-10-19T07:44:57;6.90;;;3.58;;
25567;SDS011;13455;51.480;7.594;2023-10-19T07:47:24;7.00;;;3.60;;
25567;SDS011;13455;51.480;7.594;2023-10-19T07:49:50;6.93;;;3.40;;
25567;SDS011;13455;51.480;7.594;2023-10-19T07:52:17;7.43;;;3.20;;
25567;SDS011;13455;51.480;7.594;2023-10-19T07:54:42;6.80;;;3.10;;
25567;SDS011;13455;51.480;7.594;2023-10-19T07:57:08;5.17;;;3.10;;
25567;SDS011;13455;51.480;7.594;2023-10-19T07:59:37;6.23;;;2.90;;
25567;SDS011;13455;51.480;7.594;2023-10-19T08:02:03;5.80;;;3.00;;
25567;SDS011;13455;51.480;7.594;2023-10-19T08:04:29;5.83;;;2.80;;
25567;SDS011;13455;51.480;7.594;2023-10-19T08:06:56;7.07;;;3.03;;
25567;SDS011;13455;51.480;7.594;2023-10-19T08:09:24;7.18;;;2.88;;
25567;SDS011;13455;51.480;7.594;2023-10-19T08:11:54;6.07;;;3.10;;
25567;SDS011;13455;51.480;7.594;2023-10-19T08:14:23;5.73;;;2.90;;
25567;SDS011;13455;51.480;7.594;2023-10-19T08:16:52;7.63;;;2.97;;
25567;SDS011;13455;51.480;7.594;2023-10-19T08:19:18;6.35;;;3.10;;
25567;SDS011;13455;51.480;7.594;2023-10-19T08:21:44;6.60;;;3.10;;
25567;SDS011;13455;51.480;7.594;2023-10-19T08:24:11;4.13;;;2.88;;
25567;SDS011;13455;51.480;7.594;2023-10-19T08:26:42;6.72;;;3.20;;
25567;SDS011;13455;51.480;7.594;2023-10-19T08:29:11;6.20;;;2.90;;
25567;SDS011;13455;51.480;7.594;2023-10-19T08:31:42;7.35;;;2.90;;
25567;SDS011;13455;51.480;7.594;2023-10-19T08:34:09;6.50;;;2.90;;
25567;SDS011;13455;51.480;7.594;2023-10-19T08:36:36;6.13;;;2.60;;
25567;SDS011;13455;51.480;7.594;2023-10-19T08:39:05;6.25;;;2.75;;
25567;SDS011;13455;51.480;7.594;2023-10-19T08:41:34;7.03;;;2.88;;
25567;SDS011;13455;51.480;7.594;2023-10-19T08:44:02;6.97;;;2.85;;
25567;SDS011;13455;51.480;7.594;2023-10-19T08:46:28;6.53;;;2.80;;
25567;SDS011;13455;51.480;7.594;2023-10-19T08:48:57;5.03;;;2.80;;
25567;SDS011;13455;51.480;7.594;2023-10-19T08:51:24;5.70;;;2.70;;
25567;SDS011;13455;51.480;7.594;2023-10-19T08:53:52;4.53;;;2.47;;
25567;SDS011;13455;51.480;7.594;2023-10-19T08:58:46;6.13;;;2.47;;
25567;SDS011;13455;51.480;7.594;2023-10-19T09:01:12;6.97;;;2.70;;
25567;SDS011;13455;51.480;7.594;2023-10-19T09:03:38;6.07;;;2.30;;
25567;SDS011;13455;51.480;7.594;2023-10-19T09:06:05;5.63;;;2.60;;
25567;SDS011;13455;51.480;7.594;2023-10-19T09:08:31;5.90;;;2.30;;
25567;SDS011;13455;51.480;7.594;2023-10-19T09:11:09;4.70;;;2.30;;
25567;SDS011;13455;51.480;7.594;2023-10-19T09:13:44;4.93;;;2.22;;
25567;SDS011;13455;51.480;7.594;2023-10-19T09:16:12;6.78;;;2.20;;
25567;SDS011;13455;51.480;7.594;2023-10-19T09:18:39;5.03;;;1.95;;
25567;SDS011;13455;51.480;7.594;2023-10-19T09:21:06;5.70;;;2.20;;
25567;SDS011;13455;51.480;7.594;2023-10-19T09:23:32;5.80;;;2.03;;
25567;SDS011;13455;51.480;7.594;2023-10-19T09:26:01;5.07;;;2.13;;
25567;SDS011;13455;51.480;7.594;2023-10-19T09:28:28;5.10;;;2.00;;
25567;SDS011;13455;51.480;7.594;2023-10-19T09:30:54;5.10;;;1.92;;
25567;SDS011;13455;51.480;7.594;2023-10-19T09:33:21;4.88;;;2.05;;
25567;SDS011;13455;51.480;7.594;2023-10-19T09:35:49;8.02;;;2.15;;
25567;SDS011;13455;51.480;7.594;2023-10-19T09:38:18;6.93;;;2.08;;
25567;SDS011;13455;51.480;7.594;2023-10-19T09:40:50;5.45;;;2.00;;
25567;SDS011;13455;51.480;7.594;2023-10-19T09:43:18;5.53;;;1.90;;
25567;SDS011;13455;51.480;7.594;2023-10-19T09:45:49;5.75;;;1.92;;
25567;SDS011;13455;51.480;7.594;2023-10-19T09:48:19;5.00;;;2.00;;
25567;SDS011;13455;51.480;7.594;2023-10-19T09:50:46;5.53;;;1.70;;
25567;SDS011;13455;51.480;7.594;2023-10-19T09:53:20;5.47;;;2.30;;
25567;SDS011;13455;51.480;7.594;2023-10-19T09:55:49;5.40;;;2.13;;
25567;SDS011;13455;51.480;7.594;2023-10-19T09:58:16;6.78;;;2.40;;
25567;SDS011;13455;51.480;7.594;2023-10-19T10:00:47;5.53;;;1.80;;
25567;SDS011;13455;51.480;7.594;2023-10-19T10:09:17;5.40;;;1.70;;
25567;SDS011;13455;51.480;7.594;2023-10-19T10:11:48;5.47;;;1.88;;
25567;SDS011;13455;51.480;7.594;2023-10-19T10:14:24;8.75;;;2.00;;
25567;SDS011;13455;51.480;7.594;2023-10-19T10:17:00;5.78;;;1.65;;
25567;SDS011;13455;51.480;7.594;2023-10-19T10:19:34;5.85;;;1.80;;
25567;SDS011;13455;51.480;7.594;2023-10-19T10:22:08;5.72;;;1.70;;
25567;SDS011;13455;51.480;7.594;2023-10-19T10:24:42;5.45;;;1.60;;
25567;SDS011;13455;51.480;7.594;2023-10-19T10:27:08;4.97;;;1.58;;
25567;SDS011;13455;51.480;7.594;2023-10-19T10:29:35;4.80;;;1.67;;
25567;SDS011;13455;51.480;7.594;2023-10-19T10:32:01;4.38;;;1.48;;
25567;SDS011;13455;51.480;7.594;2023-10-19T10:37:02;7.45;;;2.20;;
25567;SDS011;13455;51.480;7.594;2023-10-19T10:39:36;6.32;;;1.70;;
25567;SDS011;13455;51.480;7.594;2023-10-19T10:42:07;7.20;;;2.17;;
25567;SDS011;13455;51.480;7.594;2023-10-19T10:47:19;6.03;;;1.55;;
25567;SDS011;13455;51.480;7.594;2023-10-19T10:49:58;5.90;;;1.52;;
25567;SDS011;13455;51.480;7.594;2023-10-19T10:54:50;6.75;;;1.95;;
25567;SDS011;13455;51.480;7.594;2023-10-19T10:57:16;6.93;;;1.83;;
25567;SDS011;13455;51.480;7.594;2023-10-19T10:59:42;6.63;;;1.73;;
25567;SDS011;13455;51.480;7.594;2023-10-19T11:02:20;5.33;;;1.60;;
25567;SDS011;13455;51.480;7.594;2023-10-19T11:04:47;7.13;;;1.70;;
25567;SDS011;13455;51.480;7.594;2023-10-19T11:07:19;6.25;;;1.70;;
25567;SDS011;13455;51.480;7.594;2023-10-19T11:09:46;5.93;;;1.58;;
25567;SDS011;13455;51.480;7.594;2023-10-19T11:12:12;7.50;;;1.52;;
25567;SDS011;13455;51.480;7.594;2023-10-19T11:14:56;7.68;;;1.77;;
25567;SDS011;13455;51.480;7.594;2023-10-19T11:17:24;14.38;;;1.80;;
25567;SDS011;13455;51.480;7.594;2023-10-19T11:19:55;7.88;;;1.50;;
25567;SDS011;13455;51.480;7.594;2023-10-19T11:22:26;6.60;;;1.70;;
25567;SDS011;13455;51.480;7.594;2023-10-19T11:24:52;6.68;;;1.73;;
25567;SDS011;13455;51.480;7.594;2023-10-19T11:27:25;7.57;;;1.98;;
25567;SDS011;13455;51.480;7.594;2023-10-19T11:29:58;6.00;;;2.30;;
25567;SDS011;13455;51.480;7.594;2023-10-19T11:32:24;8.52;;;2.40;;
25567;SDS011;13455;51.480;7.594;2023-10-19T11:34:56;9.17;;;2.60;;
25567;SDS011;13455;51.480;7.594;2023-10-19T11:37:22;8.25;;;2.50;;
25567;SDS011;13455;51.480;7.594;2023-10-19T11:39:48;8.20;;;2.28;;
25567;SDS011;13455;51.480;7.594;2023-10-19T11:42:17;7.43;;;1.85;;
25567;SDS011;13455;51.480;7.594;2023-10-19T11:44:43;7.03;;;2.00;;
25567;SDS011;13455;51.480;7.594;2023-10-19T11:47:10;7.47;;;1.98;;
25567;SDS011;13455;51.480;7.594;2023-10-19T11:49:35;8.57;;;2.00;;
25567;SDS011;13455;51.480;7.594;2023-10-19T11:52:05;8.85;;;3.38;;
25567;SDS011;13455;51.480;7.594;2023-10-19T11:54:34;9.77;;;3.40;;
25567;SDS011;13455;51.480;7.594;2023-10-19T11:57:00;8.02;;;2.10;;
25567;SDS011;13455;51.480;7.594;2023-10-19T11:59:27;10.65;;;3.63;;
25567;SDS011;13455;51.480;7.594;2023-10-19T12:01:52;12.13;;;4.80;;
25567;SDS011;13455;51.480;7.594;2023-10-19T12:04:19;8.18;;;2.53;;
25567;SDS011;13455;51.480;7.594;2023-10-19T12:06:45;8.30;;;2.50;;
25567;SDS011;13455;51.480;7.594;2023-10-19T12:09:11;5.32;;;2.10;;
25567;SDS011;13455;51.480;7.594;2023-10-19T12:11:40;7.97;;;2.50;;
25567;SDS011;13455;51.480;7.594;2023-10-19T12:14:06;6.63;;;2.33;;
25567;SDS011;13455;51.480;7.594;2023-10-19T12:16:36;6.75;;;2.30;;
25567;SDS011;13455;51.480;7.594;2023-10-19T12:19:04;6.47;;;2.15;;
25567;SDS011;13455;51.480;7.594;2023-10-19T12:21:30;7.30;;;2.10;;
25567;SDS011;13455;51.480;7.594;2023-10-19T12:23:59;6.45;;;2.13;;
25567;SDS011;13455;51.480;7.594;2023-10-19T12:26:26;6.03;;;2.05;;
25567;SDS011;13455;51.480;7.594;2023-10-19T12:28:52;7.53;;;1.98;;
25567;SDS011;13455;51.480;7.594;2023-10-19T12:31:18;5.70;;;1.90;;
25567;SDS011;13455;51.480;7.594;2023-10-19T12:33:47;6.15;;;2.00;;
25567;SDS011;13455;51.480;7.594;2023-10-19T12:36:12;7.45;;;1.95;;
25567;SDS011;13455;51.480;7.594;2023-10-19T12:38:53;7.50;;;2.10;;
25567;SDS011;13455;51.480;7.594;2023-10-19T12:41:22;6.38;;;1.80;;
25567;SDS011;13455;51.480;7.594;2023-10-19T12:43:49;7.93;;;1.83;;
25567;SDS011;13455;51.480;7.594;2023-10-19T12:46:17;6.82;;;1.70;;
25567;SDS011;13455;51.480;7.594;2023-10-19T12:48:44;6.20;;;1.77;;
25567;SDS011;13455;51.480;7.594;2023-10-19T12:51:12;5.78;;;1.60;;
25567;SDS011;13455;51.480;7.594;2023-10-19T12:53:39;5.83;;;1.83;;
25567;SDS011;13455;51.480;7.594;2023-10-19T12:56:05;5.97;;;1.60;;
25567;SDS011;13455;51.480;7.594;2023-10-19T12:58:32;7.37;;;2.00;;
25567;SDS011;13455;51.480;7.594;2023-10-19T13:00:58;7.27;;;1.93;;
25567;SDS011;13455;51.480;7.594;2023-10-19T13:03:24;6.45;;;1.70;;
25567;SDS011;13455;51.480;7.594;2023-10-19T13:05:56;7.50;;;1.83;;
25567;SDS011;13455;51.480;7.594;2023-10-19T13:08:23;6.77;;;1.73;;
25567;SDS011;13455;51.480;7.594;2023-10-19T13:10:52;5.07;;;1.25;;
25567;SDS011;13455;51.480;7.594;2023-10-19T13:13:18;6.13;;;1.50;;
25567;SDS011;13455;51.480;7.594;2023-10-19T13:15:47;5.80;;;1.52;;
25567;SDS011;13455;51.480;7.594;2023-10-19T13:18:13;6.40;;;1.50;;
25567;SDS011;13455;51.480;7.594;2023-10-19T13:20:45;6.10;;;1.35;;
25567;SDS011;13455;51.480;7.594;2023-10-19T13:23:11;7.10;;;1.52;;
25567;SDS011;13455;51.480;7.594;2023-10-19T13:25:37;8.15;;;1.38;;
25567;SDS011;13455;51.480;7.594;2023-10-19T13:28:10;7.38;;;1.30;;
25567;SDS011;13455;51.480;7.594;2023-10-19T13:30:41;7.47;;;1.47;;
25567;SDS011;13455;51.480;7.594;2023-10-19T13:33:08;5.97;;;1.65;;
25567;SDS011;13455;51.480;7.594;2023-10-19T13:35:38;7.03;;;1.70;;
25567;SDS011;13455;51.480;7.594;2023-10-19T13:38:05;6.50;;;1.70;;
25567;SDS011;13455;51.480;7.594;2023-10-19T13:40:32;7.75;;;1.63;;
25567;SDS011;13455;51.480;7.594;2023-10-19T13:42:59;7.22;;;1.50;;
25567;SDS011;13455;51.480;7.594;2023-10-19T13:45:25;4.85;;;1.35;;
25567;SDS011;13455;51.480;7.594;2023-10-19T13:47:51;6.18;;;1.60;;
25567;SDS011;13455;51.480;7.594;2023-10-19T13:50:20;7.10;;;1.50;;
25567;SDS011;13455;51.480;7.594;2023-10-19T13:52:48;7.18;;;1.70;;
25567;SDS011;13455;51.480;7.594;2023-10-19T13:55:15;6.43;;;1.30;;
25567;SDS011;13455;51.480;7.594;2023-10-19T13:57:44;7.95;;;1.50;;
25567;SDS011;13455;51.480;7.594;2023-10-19T14:00:11;6.43;;;1.30;;
25567;SDS011;13455;51.480;7.594;2023-10-19T14:02:48;8.23;;;1.60;;
25567;SDS011;13455;51.480;7.594;2023-10-19T14:05:14;7.25;;;1.63;;
25567;SDS011;13455;51.480;7.594;2023-10-19T14:07:40;6.50;;;1.50;;
25567;SDS011;13455;51.480;7.594;2023-10-19T14:10:06;7.50;;;1.50;;
25567;SDS011;13455;51.480;7.594;2023-10-19T14:12:37;5.78;;;1.60;;
25567;SDS011;13455;51.480;7.594;2023-10-19T14:15:03;7.50;;;1.60;;
25567;SDS011;13455;51.480;7.594;2023-10-19T14:17:29;5.88;;;1.70;;
25567;SDS011;13455;51.480;7.594;2023-10-19T14:19:55;5.07;;;1.50;;
25567;SDS011;13455;51.480;7.594;2023-10-19T14:22:20;8.77;;;1.90;;
25567;SDS011;13455;51.480;7.594;2023-10-19T14:24:46;7.50;;;1.60;;
25567;SDS011;13455;51.480;7.594;2023-10-19T14:27:12;7.30;;;1.70;;
25567;SDS011;13455;51.480;7.594;2023-10-19T14:29:38;5.80;;;1.60;;
25567;SDS011;13455;51.480;7.594;2023-10-19T14:32:04;6.90;;;1.83;;
25567;SDS011;13455;51.480;7.594;2023-10-19T14:34:29;6.13;;;1.60;;
25567;SDS011;13455;51.480;7.594;2023-10-19T14:36:55;7.18;;;1.90;;
25567;SDS011;13455;51.480;7.594;2023-10-19T14:39:21;4.33;;;1.50;;
25567;SDS011;13455;51.480;7.594;2023-10-19T14:41:46;6.38;;;1.75;;
25567;SDS011;13455;51.480;7.594;2023-10-19T14:44:12;9.98;;;1.80;;
25567;SDS011;13455;51.480;7.594;2023-10-19T14:46:37;7.17;;;1.57;;
25567;SDS011;13455;51.480;7.594;2023-10-19T14:49:03;7.07;;;1.70;;
25567;SDS011;13455;51.480;7.594;2023-10-19T14:51:30;7.50;;;2.00;;
25567;SDS011;13455;51.480;7.594;2023-10-19T14:53:55;6.97;;;1.73;;
25567;SDS011;13455;51.480;7.594;2023-10-19T14:56:21;7.95;;;2.03;;
25567;SDS011;13455;51.480;7.594;2023-10-19T14:58:46;6.13;;;1.63;;
25567;SDS011;13455;51.480;7.594;2023-10-19T15:01:12;7.43;;;2.10;;
25567;SDS011;13455;51.480;7.594;2023-10-19T15:03:42;6.70;;;1.90;;
25567;SDS011;13455;51.480;7.594;2023-10-19T15:06:08;7.88;;;2.03;;
25567;SDS011;13455;51.480;7.594;2023-10-19T15:08:33;6.93;;;1.90;;
25567;SDS011;13455;51.480;7.594;2023-10-19T15:10:59;9.90;;;2.17;;